Create Custom Reports and Graphics: Custom Report

Siberia 8700'

Squaw Valley

10/27/20 8:30 PM (-07:00)
Updated Every 15 Minutes
Temp 39.3 °F   13.6
RH 41 %   18
Wet Bulb 30.8 °F   13.0
Dew Pt 17.6 °F   24.6
Wind Dir ENE | 78 °
Wind Spd 45.9 mph   7.0
Wind Gust 55.6 mph   8.5
WindChill 25.6 °F   17.6
Daily Min Temp 24.0 °F   10.8
Daily Max Temp 44.9 °F   13.8

Last 24 Hours

Squaw-Siberia 8700'

Hourly Data | America/Los_Angeles
as of 10/27/20 8:33 PM PDT
Date & Time Temp (°F) RH (%) Dew Pt (°F) Wet Bulb (°F) Wind Dir (°) Wind Spd (mph) Wind Gust (mph) WindChill (°F) Daily Min Temp (°F) Daily Max Temp (°F)
10/27/20 - 2000 39.7 38 16.2 30.6 E | 79 41.1 55.5 26.0 24.0 44.9
10/27/20 - 1900 39.6 38 16.2 30.6 ENE | 74 38.8 49.2 28.2 24.0 44.9
10/27/20 - 1800 41.7 33 14.8 31.3 ENE | 71 37.1 52.2 31.2 24.0 44.9
10/27/20 - 1700 43.5 29 13.1 31.9 ENE | 77 30.7 40.1 33.8 24.0 44.9
10/27/20 - 1600 43.7 32 16.1 32.7 ENE | 73 36.2 48.1 32.4 24.0 44.4
10/27/20 - 1500 44.1 36 19.0 33.7 ENE | 73 39.2 52.0 32.2 24.0 44.4
10/27/20 - 1400 43.1 46 23.8 34.6 ENE | 71 41.7 54.6 28.1 24.0 43.1
10/27/20 - 1300 39.8 53 24.2 33.0 ENE | 71 49.4 63.1 24.9 24.0 40.4
10/27/20 - 1200 39.1 52 22.8 32.2 ENE | 72 56.2 72.8 22.3 24.0 39.2
10/27/20 - 1100 37.1 52 21.2 30.6 ENE | 71 55.1 68.4 18.4 24.0 37.2
10/27/20 - 1000 33.6 60 21.0 28.6 ENE | 70 52.7 66.9 14.8 24.0 33.6
10/27/20 - 0900 31.2 61 19.2 26.6 ENE | 73 43.5 57.3 12.5 24.0 31.4
10/27/20 - 0800 29.6 60 17.4 25.1 ENE | 76 38.8 53.8 10.5 24.0 29.7
10/27/20 - 0700 28.1 53 13.2 23.1 ENE | 77 43.8 52.4 5.8 24.0 28.1
10/27/20 - 0600 24.9 37 2.2 18.6 ENE | 78 43.2 55.8 5.6 24.0 27.9
10/27/20 - 0500 24.6 35 1.1 18.2 ENE | 72 46.8 63.4 5.4 24.0 27.9
10/27/20 - 0400 26.5 32 0.7 19.3 ENE | 70 48.2 61.1 5.4 24.2 27.9
10/27/20 - 0300 24.5 33 -0.7 17.8 ENE | 72 48.5 64.5 6.3 24.5 27.9
10/27/20 - 0200 27.7 29 -0.1 20.0 ENE | 68 35.8 45.9 9.9 26.3 27.9
10/27/20 - 0100 26.6 27 -2.6 18.9 ENE | 67 34.5 45.7 9.9 26.3 27.9
10/27/20 - 0000 26.5 25 -4.5 18.5 ENE | 72 38.1 49.8 8.7 13.2 31.1
10/26/20 - 2300 26.1 23 -6.4 18.1 ENE | 74 44.2 56.5 7.9 13.2 31.1
10/26/20 - 2200 26.5 22 -7.2 18.2 ENE | 73 42.9 59.6 7.2 13.2 31.1
10/26/20 - 2100 26.8 22 -6.7 18.5 ENE | 74 42.0 56.5 7.9 13.2 31.1
10/26/20 - 2000 26.7 24 -4.9 18.7 ENE | 71 43.4 57.0 9.0 13.2 31.1
Max 44.1 61 24.2 34.6 - 56.2 72.8 33.8 26.3 44.9
Avg 32.9 38 9.2 25.2 - 42.9 56.1 16.2 - -
Min 24.5 22 -7.2 17.8 - 30.7 40.1 5.4 13.2 27.9

Last 30 Days

Squaw-Siberia 8700'

Daily Data | America/Los_Angeles
as of 10/27/20 8:33 PM PDT
Date Daily Max Temp (°F) Time of Max Temp Daily Min Temp (°F) Time of Min Temp Wind Spd (mph) Daily Max Wind (mph) Time of Max Wind Max Wind Dir (°) Wet Bulb (°F) WetB Hrs <28F (hrs)
10/26/20 31.1 1649 13.2 0253 44.4 94.8 0041 NE | 50 16.4 24.0
10/25/20 37.2 0029 14.0 2358 32.7 94.0 2235 ENE | 68 23.3 17.8
10/24/20 51.5 1513 35.9 2309 23.4 46.8 1436 SSW | 202 32.7 0.0
10/23/20 55.1 1426 36.1 0125 17.5 35.2 1430 WSW | 238 37.2 0.0
10/22/20 57.3 1451 36.1 2255 8.8 24.1 0030 WSW | 247 36.0 0.0
10/21/20 61.0 1526 46.4 2347 17.4 39.1 1425 SW | 230 38.4 0.0
10/20/20 62.8 1601 45.7 0736 16.8 38.2 0839 E | 89 38.8 0.0
10/19/20 62.7 1533 47.2 0706 12.2 23.5 1041 WSW | 244 39.7 0.0
10/18/20 62.1 1413 48.4 0713 15.9 34.3 1500 SW | 234 40.3 0.0
10/17/20 66.6 1510 51.4 0017 11.2 38.5 1439 SW | 234 40.4 0.0
10/16/20 58.6 1427 39.5 0503 23.5 44.4 0239 ESE | 115 37.0 0.0
10/15/20 60.7 0643 42.1 2313 24.6 52.1 2244 E | 101 39.8 0.0
10/14/20 62.3 1515 49.1 0722 12.2 25.3 2235 E | 82 41.7 0.0
10/13/20 62.1 1457 47.3 0712 16.3 36.7 1418 WSW | 255 40.1 0.0
10/12/20 61.0 1448 44.6 0718 13.7 29.3 1525 SSW | 206 38.3 0.0
10/11/20 56.9 1630 34.9 0339 13.7 61.7 0013 SSW | 209 38.5 0.0
10/10/20 46.6 1410 35.2 2336 40.3 83.0 1353 WNW | 290 36.3 0.0
10/9/20 60.8 1253 41.9 2352 8.8 37.7 2348 SW | 227 36.9 0.0
10/8/20 56.2 1324 47.3 1856 0.0 0.1 0820 SSE | 168 36.2 0.0
10/7/20 64.3 1509 48.6 2027 0.0 0.1 0124 SSE | 159 38.9 0.0
10/6/20 66.6 1350 52.4 0708 0.0 0.1 2109 SSE | 164 40.1 0.0
10/5/20 66.4 1601 51.0 0521 0.0 0.1 1519 SSE | 161 39.6 0.0
10/4/20 65.0 1430 51.7 0708 0.0 0.1 2322 SSE | 162 40.1 0.0
10/3/20 69.8 1601 55.8 2109 0.0 0.1 1557 SSE | 162 42.0 0.0
10/2/20 69.0 1652 57.1 2201 0.0 0.1 1548 SSE | 161 42.7 0.0
10/1/20 66.7 1523 55.5 0043 0.0 0.1 0425 SSE | 162 42.7 0.0
9/30/20 64.9 1422 52.8 0711 0.0 0.1 1644 SSE | 168 43.8 0.0
9/29/20 66.9 1515 49.7 0028 0.0 0.1 0839 S | 169 42.9 0.0
9/28/20 56.2 1412 41.5 0701 0.0 0.1 1140 S | 171 37.6 0.0
9/27/20 53.6 1534 41.4 0556 0.0 0.1 1546 SSE | 166 40.0 0.0
Max 69.8 - 57.1 - 44.4 94.8 - - 43.8 24.0
Avg - - - - 11.8 - - - 37.9 -
Min 31.1 - 13.2 - 0.0 0.1 - - 16.4 0.0
Calm: 0.0%
Calm: 0.0%